Time;durP1;ratioP1;P1;durP2;ratioP2;P2;SDS_P1;SDS_P2;PMS_P1;PMS_P2;Temp;Humidity;BMP_temperature;BMP_pressure;BME280_temperature;BME280_humidity;BME280_pressure;Samples;Min_cycle;Max_cycle;Signal;HPM_P1;HPM_P2
2022/07/08 00:00:21;;;;;;;14.88;8.80;;;;;;;13.83;100.00;97059.25;4858051;29;20053;-76
2022/07/08 00:02:48;;;;;;;12.98;9.52;;;;;;;13.73;100.00;97065.03;4858446;29;20044;-76
2022/07/08 00:05:15;;;;;;;12.05;9.23;;;;;;;13.76;100.00;97058.09;4858115;29;20102;-75
2022/07/08 00:07:41;;;;;;;13.70;8.55;;;;;;;13.76;100.00;97053.44;4858167;29;20056;-75
2022/07/08 00:10:09;;;;;;;9.75;8.75;;;;;;;13.73;100.00;97054.09;4858113;29;20068;-76
2022/07/08 00:12:36;;;;;;;14.18;9.02;;;;;;;13.74;100.00;97058.44;4858071;29;20048;-75
2022/07/08 00:15:03;;;;;;;15.27;9.55;;;;;;;13.64;100.00;97052.47;4857739;29;20041;-76
2022/07/08 00:17:31;;;;;;;13.20;8.60;;;;;;;13.74;100.00;97058.44;4858139;29;20061;-76
2022/07/08 00:19:58;;;;;;;13.30;8.93;;;;;;;13.65;100.00;97057.59;4858154;29;20046;-75
2022/07/08 00:22:24;;;;;;;13.10;8.80;;;;;;;13.75;100.00;97051.81;4855000;29;20061;-77
2022/07/08 00:24:51;;;;;;;14.50;9.18;;;;;;;13.57;100.00;97056.47;4858325;29;20059;-76
2022/07/08 00:27:17;;;;;;;13.00;9.00;;;;;;;13.58;100.00;97063.56;4857560;29;20049;-74
2022/07/08 00:29:44;;;;;;;16.25;9.70;;;;;;;13.62;100.00;97065.63;4858369;29;20049;-75
2022/07/08 00:32:10;;;;;;;13.43;8.80;;;;;;;13.50;100.00;97063.53;4857661;29;20050;-74
2022/07/08 00:34:38;;;;;;;11.20;8.73;;;;;;;13.61;100.00;97064.84;4858118;29;20053;-76
2022/07/08 00:37:06;;;;;;;15.75;9.57;;;;;;;13.64;100.00;97066.16;4858146;29;20069;-75
2022/07/08 00:39:32;;;;;;;10.40;7.80;;;;;;;13.75;100.00;97068.25;4858071;29;20046;-76
2022/07/08 00:41:59;;;;;;;9.98;8.15;;;;;;;13.77;100.00;97067.91;4857836;29;20049;-75
2022/07/08 00:44:25;;;;;;;10.38;8.48;;;;;;;13.81;100.00;97061.47;4857623;29;20052;-75
2022/07/08 00:46:52;;;;;;;12.38;8.13;;;;;;;13.76;100.00;97069.84;4857535;29;20520;-75
2022/07/08 00:49:19;;;;;;;11.95;8.52;;;;;;;13.68;100.00;97072.59;4857625;29;20045;-75
2022/07/08 00:51:48;;;;;;;10.65;8.02;;;;;;;13.71;100.00;97072.75;4858144;29;20049;-75
2022/07/08 00:54:19;;;;;;;17.20;8.77;;;;;;;13.71;100.00;97077.41;4856656;29;20073;-75
2022/07/08 00:56:45;;;;;;;12.07;8.55;;;;;;;13.74;100.00;97076.78;4857785;29;20413;-76
2022/07/08 00:59:12;;;;;;;26.33;8.88;;;;;;;13.71;100.00;97080.94;4857439;29;20061;-75
2022/07/08 01:01:39;;;;;;;9.68;8.65;;;;;;;13.67;100.00;97082.72;4857641;29;20506;-76
2022/07/08 01:04:05;;;;;;;12.82;9.25;;;;;;;13.59;100.00;97075.31;4857286;29;20072;-75
2022/07/08 01:06:32;;;;;;;12.50;8.35;;;;;;;13.54;100.00;97078.19;4857737;29;20042;-76
2022/07/08 01:09:01;;;;;;;11.50;8.65;;;;;;;13.68;100.00;97080.81;4857699;29;20051;-75
2022/07/08 01:11:27;;;;;;;15.48;8.82;;;;;;;13.72;100.00;97079.81;4857505;29;20049;-75
2022/07/08 01:13:55;;;;;;;15.88;9.05;;;;;;;13.72;100.00;97082.56;4857371;29;20045;-76
2022/07/08 01:16:21;;;;;;;13.35;8.30;;;;;;;13.74;100.00;97083.06;4857450;29;20057;-77
2022/07/08 01:18:48;;;;;;;11.45;8.45;;;;;;;13.66;100.00;97085.78;4857702;29;20052;-76
2022/07/08 01:21:16;;;;;;;10.93;8.57;;;;;;;13.53;100.00;97088.34;4857141;29;20050;-77
2022/07/08 01:23:42;;;;;;;11.15;8.13;;;;;;;13.51;100.00;97087.84;4856871;29;20520;-76
2022/07/08 01:26:12;;;;;;;11.70;8.23;;;;;;;13.47;100.00;97086.09;4856900;29;20072;-75
2022/07/08 01:28:40;;;;;;;11.93;8.75;;;;;;;13.50;100.00;97088.16;4857589;29;20050;-75
2022/07/08 01:31:06;;;;;;;12.77;8.57;;;;;;;13.58;100.00;97090.94;4857118;29;20046;-75
2022/07/08 01:33:33;;;;;;;10.90;8.57;;;;;;;13.53;100.00;97093.00;4860258;29;20065;-74
2022/07/08 01:35:59;;;;;;;14.25;8.70;;;;;;;13.46;100.00;97092.66;4861106;29;20045;-75
2022/07/08 01:38:27;;;;;;;17.45;9.43;;;;;;;13.42;100.00;97097.16;4860755;29;20045;-76
2022/07/08 01:40:54;;;;;;;13.63;8.75;;;;;;;13.47;100.00;97105.22;4861026;29;20049;-75
2022/07/08 01:43:20;;;;;;;11.30;8.73;;;;;;;13.57;100.00;97105.75;4860531;29;20053;-76
2022/07/08 01:45:47;;;;;;;10.27;7.32;;;;;;;13.50;100.00;97115.53;4861127;29;20133;-76
2022/07/08 01:48:14;;;;;;;6.53;3.75;;;;;;;13.45;97.71;97118.41;4860550;29;20516;-75
2022/07/08 01:50:40;;;;;;;8.93;3.55;;;;;;;13.37;95.01;97119.19;4860828;29;20045;-76
2022/07/08 01:53:07;;;;;;;11.82;3.20;;;;;;;13.43;95.63;97128.88;4860044;29;20494;-75
2022/07/08 01:55:34;;;;;;;12.00;3.30;;;;;;;13.31;94.28;97135.75;4860925;29;20042;-75
2022/07/08 01:58:01;;;;;;;9.68;2.58;;;;;;;13.09;94.65;97130.31;4860920;29;20041;-76
2022/07/08 02:00:28;;;;;;;8.70;2.60;;;;;;;12.96;95.40;97134.75;4860337;29;20042;-76
2022/07/08 02:02:54;;;;;;;6.80;2.45;;;;;;;12.92;95.40;97143.91;4860814;29;20056;-76
2022/07/08 02:05:21;;;;;;;5.95;2.60;;;;;;;12.80;95.78;97142.56;4860407;29;20390;-77
2022/07/08 02:07:47;;;;;;;6.38;2.83;;;;;;;12.72;97.77;97139.75;4860504;29;20044;-75
2022/07/08 02:10:14;;;;;;;12.07;3.05;;;;;;;12.62;98.77;97135.38;4860288;29;20426;-76
2022/07/08 02:16:13;;;;;;;12.30;4.00;;;;;;;12.47;100.00;97130.28;4856674;29;20057;-76
2022/07/08 02:18:39;;;;;;;8.73;3.72;;;;;;;12.41;100.00;97128.78;4860651;29;20048;-74
2022/07/08 02:21:06;;;;;;;10.18;3.22;;;;;;;12.32;100.00;97136.09;4860067;29;20054;-75
2022/07/08 02:23:33;;;;;;;12.05;3.63;;;;;;;12.38;100.00;97134.91;4860377;29;20414;-75
2022/07/08 02:25:59;;;;;;;9.07;3.65;;;;;;;12.25;100.00;97131.09;4859926;29;20410;-75
2022/07/08 02:28:26;;;;;;;9.15;3.15;;;;;;;12.27;100.00;97140.59;4859883;29;20084;-76
2022/07/08 02:30:52;;;;;;;6.00;2.80;;;;;;;12.17;100.00;97146.31;4860296;29;20140;-75
2022/07/08 02:33:20;;;;;;;10.38;3.00;;;;;;;12.06;100.00;97149.56;4859759;29;20045;-75
2022/07/08 02:35:47;;;;;;;9.85;3.20;;;;;;;11.98;99.96;97153.84;4860202;29;20046;-76
2022/07/08 02:38:13;;;;;;;8.65;3.05;;;;;;;12.03;100.00;97156.44;4859781;29;20049;-76
2022/07/08 02:40:40;;;;;;;9.73;3.42;;;;;;;11.78;100.00;97157.78;4859907;29;20575;-75
2022/07/08 02:43:09;;;;;;;10.55;3.60;;;;;;;11.80;100.00;97162.91;4859788;29;20533;-75
2022/07/08 02:45:37;;;;;;;9.50;3.42;;;;;;;11.82;100.00;97164.28;4857121;29;20050;-79
2022/07/08 02:48:04;;;;;;;9.32;3.20;;;;;;;11.80;100.00;97180.13;4859398;29;20049;-75
2022/07/08 02:50:32;;;;;;;8.73;2.97;;;;;;;11.75;100.00;97178.31;4859803;29;20056;-76
2022/07/08 02:52:58;;;;;;;7.65;3.30;;;;;;;11.73;100.00;97185.97;4859879;29;20045;-76
2022/07/08 02:55:25;;;;;;;12.10;3.28;;;;;;;11.61;100.00;97188.41;4859368;29;20056;-75
2022/07/08 02:57:52;;;;;;;9.63;3.13;;;;;;;11.69;99.89;97190.44;4859716;29;20050;-77
2022/07/08 03:00:18;;;;;;;10.30;2.83;;;;;;;11.80;100.00;97195.66;4858961;29;20058;-76
2022/07/08 03:02:45;;;;;;;16.92;3.35;;;;;;;11.74;100.00;97204.00;4859617;29;20041;-76
2022/07/08 03:05:11;;;;;;;17.02;3.40;;;;;;;11.83;100.00;97203.28;4859173;29;20049;-76
2022/07/08 03:07:39;;;;;;;11.60;3.25;;;;;;;11.71;99.05;97210.03;4859154;29;20045;-79
2022/07/08 03:10:07;;;;;;;9.77;2.85;;;;;;;11.82;98.50;97218.06;4859150;29;20057;-78
2022/07/08 03:12:33;;;;;;;10.63;3.22;;;;;;;11.74;97.11;97214.06;4859518;29;20052;-78
2022/07/08 03:15:00;;;;;;;8.70;2.95;;;;;;;11.73;97.12;97224.19;4859391;29;20046;-77
2022/07/08 03:17:26;;;;;;;6.85;2.63;;;;;;;11.76;97.00;97226.31;4856819;29;20053;-78
2022/07/08 03:19:53;;;;;;;8.90;3.13;;;;;;;11.82;97.34;97220.78;4859179;29;20114;-78
2022/07/08 03:22:19;;;;;;;9.77;2.85;;;;;;;11.86;97.63;97221.78;4858852;29;20132;-77
2022/07/08 03:24:47;;;;;;;11.82;2.55;;;;;;;11.88;96.95;97220.38;4859379;29;20439;-78
2022/07/08 03:27:14;;;;;;;10.55;2.97;;;;;;;11.90;97.08;97230.97;4858623;29;20105;-77
2022/07/08 03:29:40;;;;;;;15.05;3.58;;;;;;;11.85;96.61;97233.78;4859012;29;20045;-79
2022/07/08 03:32:07;;;;;;;15.57;2.70;;;;;;;11.80;97.15;97240.16;4858508;29;20461;-77
2022/07/08 03:34:34;;;;;;;7.55;2.75;;;;;;;11.78;96.87;97242.38;4859062;29;20129;-78
2022/07/08 03:37:01;;;;;;;12.32;3.00;;;;;;;11.86;96.89;97249.09;4858778;29;20084;-77
2022/07/08 03:39:27;;;;;;;9.98;3.22;;;;;;;11.87;96.45;97253.44;4858814;29;20053;-77
2022/07/08 03:41:54;;;;;;;6.20;2.42;;;;;;;11.88;95.97;97263.22;4858830;29;20049;-78
2022/07/08 03:44:21;;;;;;;8.93;2.45;;;;;;;11.97;96.20;97261.41;4858337;29;20045;-77
2022/07/08 03:46:47;;;;;;;6.60;2.70;;;;;;;12.00;96.65;97272.50;4856394;29;20053;-79
2022/07/08 03:49:14;;;;;;;9.07;2.83;;;;;;;11.92;96.74;97272.44;4858677;29;20060;-77
2022/07/08 03:51:40;;;;;;;12.90;2.78;;;;;;;11.95;96.42;97269.06;4858861;29;20049;-78
2022/07/08 03:54:06;;;;;;;5.75;2.88;;;;;;;12.06;96.56;97273.22;4858393;29;20056;-77
2022/07/08 03:56:33;;;;;;;9.80;3.10;;;;;;;12.03;96.91;97284.75;4858165;29;20106;-79
2022/07/08 03:59:01;;;;;;;8.77;2.92;;;;;;;12.05;96.89;97279.78;4858836;29;20056;-78
2022/07/08 04:01:27;;;;;;;11.05;3.03;;;;;;;12.11;96.73;97294.97;4858624;29;20072;-78
2022/07/08 04:03:54;;;;;;;8.52;3.00;;;;;;;11.97;95.54;97289.50;4858655;29;20052;-77
2022/07/08 04:06:20;;;;;;;10.40;2.88;;;;;;;11.88;94.44;97290.50;4858224;29;20054;-76
2022/07/08 04:08:47;;;;;;;13.20;2.90;;;;;;;12.01;94.44;97297.91;4858818;29;20473;-78
2022/07/08 04:11:13;;;;;;;10.05;2.88;;;;;;;12.01;94.48;97306.09;4858322;29;20054;-76
2022/07/08 04:13:40;;;;;;;11.90;3.20;;;;;;;12.03;94.32;97312.03;4858638;29;20086;-76
2022/07/08 04:16:12;;;;;;;8.70;2.50;;;;;;;12.14;94.40;97308.00;4855735;29;20053;-76
2022/07/08 04:18:39;;;;;;;9.55;3.20;;;;;;;12.12;95.04;97307.50;4858417;29;20076;-76
2022/07/08 04:21:06;;;;;;;7.68;2.78;;;;;;;12.13;94.80;97303.66;4857830;29;20765;-78
2022/07/08 04:23:32;;;;;;;9.77;2.60;;;;;;;12.16;95.19;97303.06;4858596;29;20076;-76
2022/07/08 04:25:59;;;;;;;9.05;2.45;;;;;;;12.13;95.11;97303.66;4858157;29;20403;-76
2022/07/08 04:28:25;;;;;;;10.48;3.22;;;;;;;12.01;93.46;97317.00;4857820;29;20049;-75
2022/07/08 04:30:52;;;;;;;9.15;3.08;;;;;;;12.08;93.63;97311.13;4858349;29;20049;-76
2022/07/08 04:33:20;;;;;;;5.82;2.58;;;;;;;12.05;93.72;97307.06;4857978;29;20696;-76
2022/07/08 04:35:46;;;;;;;8.52;3.13;;;;;;;11.96;92.32;97314.38;4857898;29;20049;-75
2022/07/08 04:38:13;;;;;;;8.00;2.50;;;;;;;11.98;92.20;97320.34;4857834;29;20049;-77
2022/07/08 04:40:39;;;;;;;7.10;2.42;;;;;;;11.66;91.39;97316.53;4858033;29;20053;-76
2022/07/08 04:43:06;;;;;;;8.23;2.72;;;;;;;11.82;91.43;97316.28;4857773;29;20088;-77
2022/07/08 04:45:32;;;;;;;7.90;2.20;;;;;;;11.91;92.75;97317.22;4855151;29;20665;-77
2022/07/08 04:47:59;;;;;;;8.35;3.03;;;;;;;11.87;92.23;97327.09;4858244;29;20049;-77
2022/07/08 04:50:27;;;;;;;8.07;2.63;;;;;;;11.87;91.23;97325.19;4857579;29;20053;-77
2022/07/08 04:52:53;;;;;;;5.97;2.25;;;;;;;11.95;91.52;97329.94;4857808;29;20064;-77
2022/07/08 04:55:29;;;;;;;5.38;2.08;;;;;;;12.05;91.83;97331.66;4857525;29;20069;-77
2022/07/08 04:57:57;;;;;;;6.93;2.20;;;;;;;12.11;92.54;97333.19;4857951;29;20053;-77
2022/07/08 05:00:23;;;;;;;13.13;3.72;;;;;;;12.03;91.12;97342.06;4857343;29;20516;-77
2022/07/08 05:02:50;;;;;;;6.70;2.30;;;;;;;11.94;89.46;97332.97;4857796;29;20049;-77
2022/07/08 05:05:17;;;;;;;11.38;2.38;;;;;;;11.96;87.28;97347.94;4857473;29;20056;-77
2022/07/08 05:07:44;;;;;;;8.88;2.00;;;;;;;11.88;87.54;97342.38;4856868;29;20050;-76
2022/07/08 05:10:11;;;;;;;6.88;2.50;;;;;;;11.74;88.22;97345.88;4857470;29;20102;-77
2022/07/08 05:12:37;;;;;;;9.02;2.40;;;;;;;11.63;87.47;97349.88;4857889;29;20056;-78
2022/07/08 05:15:05;;;;;;;8.23;2.83;;;;;;;11.63;88.74;97349.88;4857388;29;20190;-78
2022/07/08 05:17:31;;;;;;;6.93;2.22;;;;;;;11.55;88.04;97358.75;4855330;29;20045;-77
2022/07/08 05:19:58;;;;;;;6.47;2.53;;;;;;;11.54;89.21;97359.88;4857630;29;20522;-79
2022/07/08 05:22:24;;;;;;;5.95;2.30;;;;;;;11.52;88.84;97353.91;4857348;29;20060;-76
2022/07/08 05:24:52;;;;;;;9.27;2.80;;;;;;;11.49;88.67;97362.69;4857591;29;20502;-78
2022/07/08 05:27:20;;;;;;;6.68;2.33;;;;;;;11.63;88.82;97366.25;4856949;29;20049;-76
2022/07/08 05:29:47;;;;;;;12.02;2.63;;;;;;;11.59;89.02;97376.16;4857747;29;20054;-78
2022/07/08 05:32:13;;;;;;;9.82;2.60;;;;;;;11.52;87.91;97372.19;4857157;29;20046;-77
2022/07/08 05:34:41;;;;;;;10.52;2.70;;;;;;;11.67;89.39;97372.72;4857406;29;20113;-78
2022/07/08 05:37:08;;;;;;;12.23;2.30;;;;;;;11.63;88.72;97370.88;4856970;29;20053;-77
2022/07/08 05:39:34;;;;;;;10.02;2.13;;;;;;;11.73;88.34;97366.06;4857813;29;20045;-76
2022/07/08 05:42:02;;;;;;;5.88;2.10;;;;;;;11.81;87.51;97371.97;4857537;29;20049;-78
2022/07/08 05:44:29;;;;;;;11.10;2.28;;;;;;;11.73;84.15;97376.16;4857333;29;20054;-77
2022/07/08 05:46:55;;;;;;;6.90;2.17;;;;;;;11.90;85.21;97372.88;4854957;29;20086;-75
2022/07/08 05:49:22;;;;;;;9.13;2.25;;;;;;;11.87;85.15;97377.03;4857277;29;20387;-75
2022/07/08 05:51:48;;;;;;;9.15;3.60;;;;;;;12.12;85.93;97375.75;4857258;29;20053;-76
2022/07/08 05:54:14;;;;;;;11.10;2.33;;;;;;;12.19;86.57;97378.88;4856843;29;20054;-75
2022/07/08 05:56:41;;;;;;;9.55;2.42;;;;;;;12.18;85.35;97377.28;4857395;29;20045;-75
2022/07/08 05:59:09;;;;;;;11.48;2.22;;;;;;;12.23;84.34;97385.38;4856734;29;20109;-75
2022/07/08 06:01:35;;;;;;;7.20;2.10;;;;;;;12.23;83.53;97390.03;4856964;29;20125;-75
2022/07/08 06:04:01;;;;;;;5.50;1.92;;;;;;;12.31;82.92;97378.38;4856857;29;20105;-76
2022/07/08 06:06:28;;;;;;;8.38;2.03;;;;;;;12.28;82.91;97382.53;4857155;29;20054;-75
2022/07/08 06:08:54;;;;;;;10.70;2.20;;;;;;;12.23;81.38;97379.09;4857455;29;20110;-75
2022/07/08 06:11:21;;;;;;;7.45;1.95;;;;;;;12.27;81.50;97386.38;4857162;29;20053;-76
2022/07/08 06:13:47;;;;;;;4.95;1.70;;;;;;;12.45;81.07;97386.56;4857177;29;20053;-76
2022/07/08 06:16:15;;;;;;;7.43;2.00;;;;;;;12.56;82.67;97382.50;4855621;29;20050;-76
2022/07/08 06:18:42;;;;;;;11.05;1.98;;;;;;;12.55;80.41;97380.91;4858754;29;20045;-75
2022/07/08 06:21:08;;;;;;;4.45;1.45;;;;;;;12.67;80.40;97383.09;4860042;29;20057;-75
2022/07/08 06:23:35;;;;;;;5.47;1.50;;;;;;;12.82;81.80;97381.97;4860829;29;20053;-77
2022/07/08 06:26:01;;;;;;;6.80;2.08;;;;;;;12.88;79.88;97389.72;4859900;29;20141;-77
2022/07/08 06:28:28;;;;;;;10.57;2.22;;;;;;;13.05;80.12;97389.91;4860515;29;20056;-76
2022/07/08 06:30:54;;;;;;;6.20;1.73;;;;;;;13.02;77.10;97392.44;4860577;29;20450;-75
2022/07/08 06:33:22;;;;;;;7.63;1.77;;;;;;;13.10;76.28;97397.16;4860009;29;20124;-75
2022/07/08 06:35:49;;;;;;;5.53;1.42;;;;;;;12.99;75.51;97391.13;4860452;29;20050;-76
2022/07/08 06:38:16;;;;;;;7.53;1.85;;;;;;;13.15;75.50;97399.78;4859613;29;20467;-75
2022/07/08 06:40:42;;;;;;;5.38;1.42;;;;;;;13.29;74.95;97394.31;4860518;29;20053;-75
2022/07/08 06:43:09;;;;;;;6.95;1.52;;;;;;;13.22;73.30;97400.22;4860042;29;20058;-75
2022/07/08 06:45:35;;;;;;;5.93;1.40;;;;;;;13.30;73.61;97402.19;4860166;29;20056;-76
2022/07/08 06:48:02;;;;;;;5.88;1.60;;;;;;;13.20;74.06;97404.31;4859763;29;20451;-74
2022/07/08 06:50:31;;;;;;;10.70;2.53;;;;;;;13.22;75.34;97400.22;4860047;29;20050;-75
2022/07/08 06:52:57;;;;;;;10.30;2.03;;;;;;;13.22;75.69;97404.88;4860226;29;20049;-75
2022/07/08 06:55:24;;;;;;;7.03;1.58;;;;;;;13.36;74.45;97407.53;4859463;29;20056;-75
2022/07/08 06:57:51;;;;;;;10.70;2.60;;;;;;;13.33;73.79;97408.97;4859615;29;20049;-76
2022/07/08 07:00:18;;;;;;;5.40;1.92;;;;;;;13.50;74.58;97419.25;4859725;29;20050;-76
2022/07/08 07:02:44;;;;;;;6.88;1.98;;;;;;;13.67;75.77;97416.63;4859972;29;20053;-75
2022/07/08 07:05:12;;;;;;;7.50;1.75;;;;;;;13.57;73.01;97422.34;4859422;29;20049;-75
2022/07/08 07:07:40;;;;;;;5.35;1.45;;;;;;;13.66;73.44;97430.63;4859786;29;20057;-75
2022/07/08 07:10:08;;;;;;;6.75;1.83;;;;;;;13.73;74.26;97426.34;4859332;29;20061;-76
2022/07/08 07:12:34;;;;;;;4.57;1.65;;;;;;;13.68;72.92;97436.63;4859454;29;20164;-75
2022/07/08 07:15:01;;;;;;;8.77;1.67;;;;;;;13.39;71.60;97435.09;4859673;29;20041;-75
2022/07/08 07:17:27;;;;;;;8.43;1.55;;;;;;;13.69;73.67;97435.50;4859369;29;20044;-75
2022/07/08 07:19:54;;;;;;;7.28;1.92;;;;;;;13.93;73.67;97426.94;4859609;29;20045;-76
2022/07/08 07:22:20;;;;;;;7.30;1.85;;;;;;;14.04;72.51;97431.00;4859209;29;20101;-76
2022/07/08 07:24:48;;;;;;;6.03;1.77;;;;;;;14.10;70.43;97429.78;4859595;29;20100;-76
2022/07/08 07:27:14;;;;;;;9.05;1.90;;;;;;;13.96;70.60;97432.59;4858737;29;20061;-76
2022/07/08 07:29:41;;;;;;;8.18;2.00;;;;;;;13.91;70.14;97416.28;4858779;29;20049;-76
2022/07/08 07:32:08;;;;;;;6.00;2.05;;;;;;;13.92;70.98;97433.53;4858656;29;20565;-76
2022/07/08 07:34:35;;;;;;;8.70;1.90;;;;;;;14.00;71.15;97424.56;4859248;29;20053;-76
2022/07/08 07:37:02;;;;;;;5.03;2.20;;;;;;;14.08;73.19;97432.81;4858695;29;20545;-76
2022/07/08 07:39:28;;;;;;;9.85;1.88;;;;;;;14.26;74.23;97433.72;4859360;29;20629;-76
2022/07/08 07:41:56;;;;;;;5.22;1.60;;;;;;;14.30;71.58;97437.47;4859210;29;20045;-76
2022/07/08 07:44:23;;;;;;;6.38;2.17;;;;;;;14.27;71.98;97438.06;4858758;29;20061;-76
2022/07/08 07:46:49;;;;;;;8.45;1.98;;;;;;;14.44;71.59;97437.34;4858554;29;20065;-76
2022/07/08 07:49:16;;;;;;;5.65;1.65;;;;;;;14.59;73.32;97447.09;4858673;29;20060;-75
2022/07/08 07:51:42;;;;;;;6.38;1.83;;;;;;;14.62;72.25;97449.22;4858953;29;20053;-77
2022/07/08 07:54:09;;;;;;;6.60;1.75;;;;;;;14.47;71.41;97447.72;4858550;29;20546;-76
2022/07/08 07:56:35;;;;;;;7.80;2.22;;;;;;;14.28;68.68;97447.91;4858809;29;20501;-75
2022/07/08 07:59:03;;;;;;;6.65;1.90;;;;;;;14.00;70.17;97446.47;4858729;29;20060;-77
2022/07/08 08:01:30;;;;;;;9.73;1.95;;;;;;;13.88;72.22;97457.97;4859137;29;20098;-75
2022/07/08 08:03:56;;;;;;;7.03;2.08;;;;;;;13.63;72.41;97453.97;4858817;29;20056;-75
2022/07/08 08:06:23;;;;;;;5.57;2.10;;;;;;;13.55;74.31;97463.72;4858488;29;20041;-76
2022/07/08 08:08:49;;;;;;;6.90;2.00;;;;;;;13.50;73.52;97452.88;4858734;29;20045;-77
2022/07/08 08:11:16;;;;;;;4.72;2.03;;;;;;;13.58;75.18;97460.38;4858118;29;20053;-76
2022/07/08 08:13:42;;;;;;;8.63;2.08;;;;;;;13.73;74.98;97461.09;4858728;29;20041;-77
2022/07/08 08:16:10;;;;;;;5.82;1.95;;;;;;;13.76;74.51;97458.56;4857723;29;20049;-76
2022/07/08 08:18:37;;;;;;;10.35;2.22;;;;;;;13.95;75.35;97465.78;4858479;29;20114;-76
2022/07/08 08:21:03;;;;;;;6.45;1.85;;;;;;;14.10;70.40;97466.19;4858197;29;20105;-75
2022/07/08 08:23:30;;;;;;;7.30;2.05;;;;;;;14.40;72.12;97454.72;4858548;29;20552;-76
2022/07/08 08:25:56;;;;;;;7.47;1.80;;;;;;;14.91;69.88;97458.81;4858130;29;20497;-77
2022/07/08 08:28:24;;;;;;;7.18;1.63;;;;;;;15.26;67.03;97465.16;4858051;29;20049;-76
2022/07/08 08:30:50;;;;;;;6.57;1.88;;;;;;;15.62;64.12;97456.63;4858407;29;20061;-75
2022/07/08 08:33:18;;;;;;;5.40;1.60;;;;;;;16.40;65.99;97457.31;4858005;29;20141;-75
2022/07/08 08:35:45;;;;;;;11.20;2.10;;;;;;;16.02;63.14;97462.72;4858202;29;20421;-75
2022/07/08 08:38:11;;;;;;;5.97;2.00;;;;;;;16.16;69.05;97454.31;4857653;29;20057;-75
2022/07/08 08:40:39;;;;;;;6.97;2.20;;;;;;;16.57;73.12;97450.13;4858319;29;20106;-76
2022/07/08 08:43:05;;;;;;;8.35;1.92;;;;;;;16.46;61.29;97457.94;4857671;29;20081;-76
2022/07/08 08:45:33;;;;;;;5.07;1.38;;;;;;;16.47;60.17;97464.25;4858219;29;20132;-76
2022/07/08 08:48:03;;;;;;;6.40;1.75;;;;;;;16.52;62.60;97467.63;4858131;29;20068;-75
2022/07/08 08:53:19;;;;;;;7.57;1.80;;;;;;;15.68;63.12;97466.34;4857878;29;20064;-76
2022/07/08 08:55:45;;;;;;;4.38;1.48;;;;;;;15.59;62.45;97479.22;4858350;29;20488;-75
2022/07/08 08:58:12;;;;;;;9.13;1.48;;;;;;;15.03;62.81;97464.47;4857742;29;20069;-75
2022/07/08 09:00:39;;;;;;;8.38;1.70;;;;;;;14.97;65.53;97473.97;4858124;29;20049;-76
2022/07/08 09:03:05;;;;;;;6.03;1.60;;;;;;;14.59;62.62;97469.03;4857401;29;20572;-76
2022/07/08 09:05:33;;;;;;;5.50;1.33;;;;;;;14.80;63.92;97472.00;4858203;29;20050;-76
2022/07/08 09:08:00;;;;;;;6.60;1.83;;;;;;;14.82;66.25;97472.47;4857651;29;20493;-75
2022/07/08 09:10:27;;;;;;;8.48;1.67;;;;;;;14.85;65.27;97475.41;4857575;29;20742;-75
2022/07/08 09:13:01;;;;;;;6.38;1.60;;;;;;;14.76;64.65;97480.03;4858149;29;20045;-76
2022/07/08 09:15:31;;;;;;;9.77;1.77;;;;;;;14.89;64.70;97467.34;4857728;29;20061;-76
2022/07/08 09:17:58;;;;;;;5.97;1.75;;;;;;;14.90;62.83;97470.91;4858015;29;20045;-77
2022/07/08 09:20:25;;;;;;;3.05;1.20;;;;;;;15.08;61.64;97467.88;4857761;29;20520;-75
2022/07/08 09:22:53;;;;;;;3.03;1.20;;;;;;;15.16;64.47;97477.25;4857829;29;20046;-77
2022/07/08 09:25:19;;;;;;;8.40;2.58;;;;;;;15.12;65.56;97477.06;4857088;29;20053;-76
2022/07/08 09:27:46;;;;;;;5.60;1.60;;;;;;;15.15;62.60;97483.88;4857857;29;20041;-77
2022/07/08 09:30:15;;;;;;;4.85;1.60;;;;;;;15.17;62.49;97472.56;4857199;29;20478;-76
2022/07/08 09:32:41;;;;;;;6.82;1.27;;;;;;;15.05;62.72;97475.94;4857905;29;20122;-76
2022/07/08 09:35:12;;;;;;;6.13;1.60;;;;;;;15.13;63.26;97477.88;4857291;29;20053;-75
2022/07/08 09:37:39;;;;;;;5.70;1.55;;;;;;;14.87;63.27;97475.88;4857743;29;20053;-75
2022/07/08 09:40:17;;;;;;;4.60;1.45;;;;;;;14.99;61.19;97466.25;4857375;29;20053;-75
2022/07/08 09:42:44;;;;;;;6.68;1.55;;;;;;;15.29;63.21;97470.81;4857671;29;20073;-76
2022/07/08 09:45:10;;;;;;;6.63;1.73;;;;;;;15.19;61.25;97479.38;4857401;29;20105;-77
2022/07/08 09:47:37;;;;;;;5.07;1.60;;;;;;;15.25;60.07;97477.28;4857694;29;20053;-75
2022/07/08 09:50:03;;;;;;;5.35;1.80;;;;;;;15.30;60.82;97488.09;4857086;29;20060;-76
2022/07/08 09:52:30;;;;;;;8.80;2.08;;;;;;;15.31;60.94;97470.50;4857341;29;20603;-76
2022/07/08 09:55:01;;;;;;;7.00;1.60;;;;;;;15.47;61.43;97477.13;4860692;29;20053;-77
2022/07/08 09:57:30;;;;;;;6.75;2.15;;;;;;;15.38;62.92;97474.38;4860866;29;20506;-75
2022/07/08 09:59:57;;;;;;;7.70;1.75;;;;;;;15.24;61.98;97479.19;4861015;29;20042;-75
2022/07/08 10:02:24;;;;;;;8.18;1.50;;;;;;;15.22;63.04;97484.19;4860538;29;20057;-77
2022/07/08 10:04:51;;;;;;;6.15;1.95;;;;;;;15.50;63.82;97481.16;4860951;29;20042;-76
2022/07/08 10:07:18;;;;;;;8.60;1.63;;;;;;;15.63;65.49;97481.03;4860602;29;20057;-76
2022/07/08 10:09:45;;;;;;;4.20;1.52;;;;;;;15.49;61.78;97485.84;4860675;29;20059;-75
2022/07/08 10:12:13;;;;;;;6.00;1.80;;;;;;;15.52;62.71;97485.22;4860336;29;20061;-76
2022/07/08 10:14:45;;;;;;;4.15;1.63;;;;;;;15.42;59.57;97479.22;4860432;29;20665;-75
2022/07/08 10:17:17;;;;;;;4.78;1.60;;;;;;;15.55;61.90;97490.03;4860202;29;20052;-76
2022/07/08 10:19:47;;;;;;;7.50;1.70;;;;;;;15.84;65.94;97483.94;4860907;29;20056;-77
2022/07/08 10:22:16;;;;;;;4.35;1.60;;;;;;;16.21;64.30;97483.56;4860164;29;20053;-76
2022/07/08 10:24:44;;;;;;;5.80;1.27;;;;;;;16.27;58.11;97487.75;4860375;29;20057;-76
2022/07/08 10:27:11;;;;;;;5.30;1.65;;;;;;;16.09;57.38;97498.78;4860092;29;20046;-76
2022/07/08 10:29:39;;;;;;;10.32;1.98;;;;;;;15.95;59.50;97491.84;4860294;29;20073;-76
2022/07/08 10:32:23;;;;;;;7.10;1.63;;;;;;;15.68;60.62;97496.53;4860152;29;20060;-76
2022/07/08 10:35:08;;;;;;;7.45;1.42;;;;;;;15.80;61.52;97496.69;4860530;29;20089;-75
2022/07/08 10:37:46;;;;;;;6.63;1.70;;;;;;;15.92;62.02;97493.28;4860107;29;20077;-76
2022/07/08 10:40:13;;;;;;;7.13;1.60;;;;;;;16.05;61.08;97491.50;4859989;29;20132;-76
2022/07/08 10:42:43;;;;;;;7.20;1.70;;;;;;;16.18;61.05;97505.06;4860028;29;20049;-76
2022/07/08 10:45:15;;;;;;;6.03;1.80;;;;;;;16.03;59.84;97504.78;4859476;29;20053;-76
2022/07/08 10:47:43;;;;;;;8.23;1.63;;;;;;;16.16;61.45;97501.03;4860263;29;20049;-75
2022/07/08 10:50:10;;;;;;;6.10;1.70;;;;;;;16.18;60.23;97496.00;4859673;29;20053;-76
2022/07/08 10:52:40;;;;;;;6.50;1.42;;;;;;;16.46;58.26;97481.88;4860263;29;20056;-75
2022/07/08 10:55:09;;;;;;;4.30;1.38;;;;;;;16.44;58.11;97474.78;4859624;29;20077;-76
2022/07/08 10:57:36;;;;;;;6.03;1.50;;;;;;;16.35;56.67;97478.69;4859892;29;20072;-76
2022/07/08 11:00:07;;;;;;;7.15;1.70;;;;;;;16.47;56.99;97491.72;4859448;29;20128;-76
2022/07/08 11:02:40;;;;;;;6.57;1.70;;;;;;;16.53;57.85;97490.41;4860076;29;20056;-75
2022/07/08 11:05:08;;;;;;;5.05;1.50;;;;;;;16.57;58.92;97481.19;4858456;29;20053;-75
2022/07/08 11:07:35;;;;;;;6.93;1.50;;;;;;;16.58;59.82;97482.00;4859765;29;20056;-76
2022/07/08 11:10:06;;;;;;;3.67;1.50;;;;;;;16.73;59.14;97489.72;4858961;29;20042;-76
2022/07/08 11:12:34;;;;;;;6.80;2.05;;;;;;;16.94;59.00;97485.09;4859996;29;20045;-75
2022/07/08 11:15:02;;;;;;;5.95;1.75;;;;;;;17.02;60.33;97480.69;4859603;29;20045;-76
2022/07/08 11:17:31;;;;;;;4.60;1.40;;;;;;;16.77;57.12;97487.13;4859198;29;20049;-76
2022/07/08 11:19:59;;;;;;;6.18;1.50;;;;;;;16.91;58.36;97483.00;4859644;29;20049;-75
2022/07/08 11:22:28;;;;;;;4.78;1.50;;;;;;;17.11;60.19;97494.38;4859134;29;20053;-78
2022/07/08 11:24:55;;;;;;;5.63;1.50;;;;;;;17.26;57.53;97479.25;4859345;29;20053;-77
2022/07/08 11:27:24;;;;;;;8.35;1.70;;;;;;;17.20;58.06;97486.88;4858834;29;20061;-75
2022/07/08 11:29:52;;;;;;;7.03;1.70;;;;;;;17.24;54.58;97493.34;4859535;29;20133;-76
2022/07/08 11:32:19;;;;;;;4.13;1.63;;;;;;;17.22;55.75;97490.91;4858911;29;20073;-75
2022/07/08 11:34:47;;;;;;;10.73;1.85;;;;;;;16.94;56.94;97496.09;4859293;29;20045;-75